Aeroporto :
LOGIN :

Iscrizione | Disclaimer

   EN    FR    IT 

 










Sommario :    VFR   VFR Marginale   IFR   IFR Intensivo   IFR Molto Intensivo
Visibilità : 
Base nubi : 
>= 8 km
>= 3000ft
5 / 8 km
1000 / 3000 ft
1500m / 5 km
500 / 1000 ft
800 / 1500m
200 / 500 ft
< 800m
< 200 ft
Simboli :   Temporali  Nebbia  Neve Forte  Precipitazioni Forti  Vento > 20 kt
SIGMETs :   Varie  Temporali  Ghiacco  Turbolenza  Onda orograficha  Ceneri Vulcaniche






- Altitudine del aeroporto : 79 ft
- Codice IATA : SPU


LDSP - Split

ULTIMO METAR :
  • 200530Z VRB03KT CAVOK 19/16 Q1011 NOSIG

METARs OBSOLETI :
  • 200500Z 31006KT CAVOK 20/16 Q1010 NOSIG
  • 200430Z 26004KT 240V300 CAVOK 19/16 Q1010 NOSIG
  • 200400Z AUTO 36005KT 300V090 CAVOK 19/16 Q1010 NOSIG
  • 200330Z AUTO 30009KT CAVOK 20/16 Q1009 NOSIG
  • 200300Z AUTO VRB05KT CAVOK 20/16 Q1009 NOSIG

TAF TAF LDSP
Valido dal 20 a 06 ore il 21 a 06 ore UTC


200525Z 2006/2106 31008KT 9999 FEW030 TX25/2012Z TN18/2104Z
PROB30 2011/2014 23010KT



MetMap, La meteo Aeronautica in un colpo d'occhio ! - Copyright ORBIFLY Dicembre 2007 - Disclaimer

ORBIFLY MET'MAP TEAM :

Programmazione e sviluppo : Alexandra Zaïnal
Concezione : Baudouin d'Aumeries
Aiuto per la programmazione : Marc-Olivier Méhu
Supporto tecnico e logistico : Manuel Goepfert
Aiuto per la traduzione : Arnaldo La Scala

Contatto : metmap@orbifly.com




FONTI E CREDITI :

   NOAA